createdAt,value
2018-04-11T00:00:30.476Z,35.27
2018-04-11T00:02:58.639Z,33.93
2018-04-11T00:05:26.765Z,39.67
2018-04-11T00:07:54.890Z,34.37
2018-04-11T00:10:23.046Z,44.30
2018-04-11T00:12:51.182Z,32.70
2018-04-11T00:15:19.321Z,38.47
2018-04-11T00:17:48.251Z,35.53
2018-04-11T00:20:16.382Z,28.77
2018-04-11T00:22:44.534Z,34.43
2018-04-11T00:25:12.675Z,29.73
2018-04-11T00:27:40.829Z,41.23
2018-04-11T00:30:08.957Z,32.73
2018-04-11T00:32:37.089Z,30.90
2018-04-11T00:35:05.247Z,29.83
2018-04-11T00:37:33.373Z,47.53
2018-04-11T00:40:01.503Z,34.43
2018-04-11T00:42:29.658Z,41.60
2018-04-11T00:44:57.789Z,30.33
2018-04-11T00:47:25.949Z,33.90
2018-04-11T00:49:54.087Z,36.57
2018-04-11T00:52:22.238Z,26.87
2018-04-11T00:54:51.132Z,32.50
2018-04-11T00:57:19.299Z,34.00
2018-04-11T00:59:47.454Z,35.70
2018-04-11T01:02:16.348Z,30.17
2018-04-11T01:04:45.294Z,31.97
2018-04-11T01:07:13.435Z,31.00
2018-04-11T01:09:41.571Z,37.97
2018-04-11T01:12:09.726Z,33.20
2018-04-11T01:14:37.867Z,37.40
2018-04-11T01:17:06.026Z,33.87
2018-04-11T01:19:34.174Z,41.73
2018-04-11T01:22:03.097Z,40.57
2018-04-11T01:24:31.232Z,35.10
2018-04-11T01:27:00.174Z,33.27
2018-04-11T01:29:28.313Z,33.77
2018-04-11T01:31:56.448Z,35.97
2018-04-11T01:34:24.605Z,29.60
2018-04-11T01:36:52.741Z,32.90
2018-04-11T01:39:20.889Z,33.17
2018-04-11T01:41:49.785Z,35.00
2018-04-11T01:44:18.702Z,34.23
2018-04-11T01:46:46.839Z,31.70
2018-04-11T01:49:15.737Z,46.93
2018-04-11T01:51:43.889Z,37.87
2018-04-11T01:54:12.049Z,34.27
2018-04-11T01:56:40.210Z,39.30
2018-04-11T01:59:08.370Z,36.20
2018-04-11T02:01:36.498Z,37.73
2018-04-11T02:04:05.400Z,42.57
2018-04-11T02:06:33.557Z,40.93
2018-04-11T02:09:02.467Z,36.40
2018-04-11T02:11:30.593Z,35.53
2018-04-11T02:13:58.766Z,36.73
2018-04-11T02:16:26.905Z,40.23
2018-04-11T02:18:55.035Z,37.30
2018-04-11T02:21:23.961Z,37.97
2018-04-11T02:23:52.103Z,44.47
2018-04-11T02:26:20.262Z,35.37
2018-04-11T02:28:49.218Z,40.03
2018-04-11T02:31:17.374Z,37.20
2018-04-11T02:33:45.509Z,46.13
2018-04-11T02:36:14.422Z,38.97
2018-04-11T02:38:42.581Z,39.80
2018-04-11T02:41:10.731Z,52.23
2018-04-11T02:43:38.895Z,37.03
2018-04-11T02:46:07.022Z,37.20
2018-04-11T02:48:35.219Z,37.13
2018-04-11T02:51:03.474Z,41.07
2018-04-11T02:53:31.620Z,50.07
2018-04-11T02:55:59.755Z,40.50
2018-04-11T02:58:27.912Z,38.43
2018-04-11T03:00:56.070Z,42.83
2018-04-11T03:03:26.996Z,42.10
2018-04-11T03:05:55.160Z,48.43
2018-04-11T03:08:23.294Z,41.83
2018-04-11T03:10:52.223Z,46.43
2018-04-11T03:13:20.357Z,52.30
2018-04-11T03:15:48.545Z,48.53
2018-04-11T03:18:16.659Z,45.83
2018-04-11T03:20:44.798Z,48.63
2018-04-11T03:23:13.769Z,63.20
2018-04-11T03:25:42.669Z,47.57
2018-04-11T03:28:10.846Z,42.20
2018-04-11T03:30:39.739Z,49.40
2018-04-11T03:33:07.890Z,42.60
2018-04-11T03:35:36.785Z,45.20
2018-04-11T03:38:05.678Z,39.47
2018-04-11T03:40:34.598Z,43.60
2018-04-11T03:43:02.734Z,39.67
2018-04-11T03:45:31.650Z,49.27
2018-04-11T03:47:59.787Z,45.60
2018-04-11T03:50:28.073Z,51.00
2018-04-11T03:52:56.974Z,39.97
2018-04-11T03:55:25.883Z,45.07
2018-04-11T03:57:54.050Z,57.90
2018-04-11T04:00:22.222Z,47.97
2018-04-11T04:02:50.354Z,39.37
2018-04-11T04:05:18.479Z,48.33
2018-04-11T04:07:46.674Z,45.30
2018-04-11T04:10:14.854Z,48.07
2018-04-11T04:12:43.022Z,40.13
2018-04-11T04:15:29.039Z,49.27
2018-04-11T04:18:15.302Z,42.73
2018-04-11T04:20:43.443Z,41.50
2018-04-11T04:23:11.581Z,38.10
2018-04-11T04:25:39.731Z,44.40
2018-04-11T04:28:08.617Z,41.80
2018-04-11T04:30:36.764Z,46.23
2018-04-11T04:33:04.898Z,53.57
2018-04-11T04:35:33.830Z,46.00
2018-04-11T04:38:01.960Z,44.23
2018-04-11T04:40:30.890Z,48.83
2018-04-11T04:42:59.018Z,50.00
2018-04-11T04:45:27.174Z,44.10
2018-04-11T04:47:55.345Z,43.00
2018-04-11T04:50:23.486Z,40.90
2018-04-11T04:52:51.639Z,44.40
2018-04-11T04:55:19.791Z,45.30
2018-04-11T04:57:48.721Z,39.77
2018-04-11T05:00:16.875Z,45.17
2018-04-11T05:02:45.762Z,50.67
2018-04-11T05:05:13.916Z,56.53
2018-04-11T05:07:42.830Z,39.63
2018-04-11T05:10:10.982Z,53.23
2018-04-11T05:12:39.886Z,42.30
2018-04-11T05:15:08.043Z,43.40
2018-04-11T05:17:36.937Z,42.27
2018-04-11T05:20:05.861Z,38.93
2018-04-11T05:22:34.049Z,49.60
2018-04-11T05:25:02.227Z,42.23
2018-04-11T05:27:30.372Z,46.53
2018-04-11T05:29:58.511Z,47.93
2018-04-11T05:32:27.426Z,46.80
2018-04-11T05:34:55.577Z,41.40
2018-04-11T05:37:24.486Z,49.57
2018-04-11T05:39:52.655Z,47.43
2018-04-11T05:42:20.815Z,41.70
2018-04-11T05:44:48.957Z,37.03
2018-04-11T05:47:17.106Z,45.50
2018-04-11T05:49:45.286Z,42.80
2018-04-11T05:52:13.438Z,43.60
2018-04-11T05:54:42.423Z,48.83
2018-04-11T05:57:10.550Z,43.33
2018-04-11T05:59:38.704Z,41.60
2018-04-11T06:02:06.835Z,40.33
2018-04-11T06:04:34.981Z,41.70
2018-04-11T06:07:03.894Z,41.80
2018-04-11T06:09:32.045Z,37.70
2018-04-11T06:12:00.946Z,43.47
2018-04-11T06:14:29.110Z,40.33
2018-04-11T06:16:58.031Z,44.03
2018-04-11T06:19:26.165Z,38.53
2018-04-11T06:21:55.094Z,41.43
2018-04-11T06:24:23.218Z,43.43
2018-04-11T06:26:51.359Z,40.67
2018-04-11T06:29:19.502Z,44.60
2018-04-11T06:31:47.698Z,48.03
2018-04-11T06:34:15.849Z,43.50
2018-04-11T06:36:43.999Z,38.60
2018-04-11T06:39:12.923Z,41.80
2018-04-11T06:41:41.046Z,49.77
2018-04-11T06:44:10.066Z,42.87
2018-04-11T06:46:38.194Z,41.27
2018-04-11T06:49:06.350Z,43.90
2018-04-11T06:51:35.153Z,38.83
2018-04-11T06:54:03.303Z,36.50
2018-04-11T06:56:31.516Z,43.83
2018-04-11T06:58:59.707Z,50.60
2018-04-11T07:01:28.593Z,45.33
2018-04-11T07:03:57.684Z,39.03
2018-04-11T07:06:26.681Z,48.47
2018-04-11T07:08:55.594Z,48.70
2018-04-11T07:11:24.533Z,40.37
2018-04-11T07:13:52.678Z,42.63
2018-04-11T07:16:20.823Z,40.93
2018-04-11T07:18:49.798Z,37.33
2018-04-11T07:21:18.701Z,39.30
2018-04-11T07:23:46.850Z,43.37
2018-04-11T07:26:15.759Z,39.07
2018-04-11T07:28:43.890Z,35.07
2018-04-11T07:31:12.047Z,43.80
2018-04-11T07:33:40.301Z,40.33
2018-04-11T07:36:10.414Z,36.63
2018-04-11T07:38:38.567Z,34.73
2018-04-11T07:41:06.705Z,41.30
2018-04-11T07:43:35.769Z,39.97
2018-04-11T07:46:03.982Z,37.40
2018-04-11T07:48:32.051Z,43.50
2018-04-11T07:51:00.266Z,40.17
2018-04-11T07:53:28.398Z,39.67
2018-04-11T07:55:56.536Z,40.03
2018-04-11T07:58:24.686Z,38.83
2018-04-11T08:00:52.823Z,45.17
2018-04-11T08:03:21.768Z,43.43
2018-04-11T08:05:49.930Z,39.70
2018-04-11T08:08:18.070Z,37.83
2018-04-11T08:10:46.966Z,41.43
2018-04-11T08:13:15.228Z,40.93
2018-04-11T08:15:44.133Z,40.80
2018-04-11T08:18:12.318Z,52.93
2018-04-11T08:20:40.482Z,35.00
2018-04-11T08:23:08.613Z,41.40
2018-04-11T08:25:36.745Z,35.43
2018-04-11T08:28:04.919Z,35.27
2018-04-11T08:30:33.088Z,39.70
2018-04-11T08:33:01.218Z,34.23
2018-04-11T08:35:30.140Z,37.80
2018-04-11T08:37:58.311Z,36.00
2018-04-11T08:40:26.437Z,34.80
2018-04-11T08:42:54.774Z,38.50
2018-04-11T08:48:20.666Z,33.50
2018-04-11T08:50:49.561Z,35.60
2018-04-11T08:53:18.460Z,39.27
2018-04-11T08:55:47.386Z,39.83
2018-04-11T08:58:15.522Z,34.73
2018-04-11T09:00:44.438Z,32.40
2018-04-11T09:03:12.565Z,39.30
2018-04-11T09:05:40.721Z,36.57
2018-04-11T09:08:08.876Z,41.03
2018-04-11T09:10:37.035Z,33.63
2018-04-11T09:13:05.185Z,34.33
2018-04-11T09:15:33.343Z,37.10
2018-04-11T09:18:02.237Z,33.97
2018-04-11T09:20:31.126Z,31.73
2018-04-11T09:23:00.063Z,34.93
2018-04-11T09:25:28.199Z,39.17
2018-04-11T09:27:56.337Z,38.07
2018-04-11T09:30:24.486Z,37.53
2018-04-11T09:32:52.638Z,33.97
2018-04-11T09:35:20.763Z,31.83
2018-04-11T09:37:48.898Z,31.83
2018-04-11T09:40:17.048Z,33.03
2018-04-11T09:42:45.193Z,41.30
2018-04-11T09:45:14.114Z,30.30
2018-04-11T09:47:42.238Z,35.80
2018-04-11T09:50:10.373Z,32.30
2018-04-11T09:52:38.691Z,34.10
2018-04-11T09:55:07.446Z,33.53
2018-04-11T09:57:35.574Z,33.90
2018-04-11T10:00:03.734Z,34.33
2018-04-11T10:02:37.434Z,33.97
2018-04-11T10:05:06.347Z,34.93
2018-04-11T10:07:34.498Z,34.00
2018-04-11T10:10:03.416Z,30.77
2018-04-11T10:12:31.553Z,32.77
2018-04-11T10:15:00.466Z,32.03
2018-04-11T10:17:28.612Z,30.90
2018-04-11T10:19:57.543Z,33.43
2018-04-11T10:22:25.675Z,33.70
2018-04-11T10:24:54.661Z,39.10
2018-04-11T10:27:22.753Z,39.20
2018-04-11T10:29:51.668Z,33.70
2018-04-11T10:32:19.839Z,32.10
2018-04-11T10:34:47.962Z,37.20
2018-04-11T10:37:16.087Z,51.37
2018-04-11T10:39:44.261Z,36.07
2018-04-11T10:42:12.390Z,34.67
2018-04-11T10:44:41.282Z,31.97
2018-04-11T10:47:10.197Z,30.87
2018-04-11T10:49:38.325Z,28.53
2018-04-11T10:52:06.507Z,36.83
2018-04-11T10:54:34.634Z,29.60
2018-04-11T10:57:02.771Z,37.13
2018-04-11T10:59:31.703Z,37.43
2018-04-11T11:01:59.841Z,41.50
2018-04-11T11:04:28.733Z,27.07
2018-04-11T11:06:56.910Z,36.03
2018-04-11T11:09:25.054Z,31.57
2018-04-11T11:11:53.970Z,33.97
2018-04-11T11:14:22.126Z,34.80
2018-04-11T11:16:51.077Z,31.20
2018-04-11T11:19:19.205Z,28.50
2018-04-11T11:21:47.396Z,32.10
2018-04-11T11:24:15.546Z,33.10
2018-04-11T11:26:44.473Z,32.13
2018-04-11T11:29:12.619Z,29.23
2018-04-11T11:31:40.790Z,30.90
2018-04-11T11:34:08.938Z,27.43
2018-04-11T11:36:37.846Z,34.43
2018-04-11T11:39:06.001Z,31.03
2018-04-11T11:41:34.919Z,26.60
2018-04-11T11:44:03.096Z,27.70
2018-04-11T11:46:31.225Z,29.70
2018-04-11T11:48:59.358Z,30.67
2018-04-11T11:51:27.505Z,33.10
2018-04-11T11:53:55.633Z,27.67
2018-04-11T11:56:23.784Z,26.30
2018-04-11T11:58:51.913Z,24.43
2018-04-11T12:01:20.046Z,29.00
2018-04-11T12:03:48.198Z,25.83
2018-04-11T12:06:16.345Z,24.70
2018-04-11T12:08:44.469Z,22.53
2018-04-11T12:11:12.610Z,21.37
2018-04-11T12:13:40.730Z,23.10
2018-04-11T12:16:09.642Z,28.70
2018-04-11T12:18:37.778Z,30.93
2018-04-11T12:21:06.919Z,28.83
2018-04-11T12:23:35.062Z,23.83
2018-04-11T12:26:04.015Z,27.07
2018-04-11T12:28:32.205Z,29.80
2018-04-11T12:31:00.368Z,29.63
2018-04-11T12:33:28.519Z,28.60
2018-04-11T12:35:56.646Z,27.43
2018-04-11T12:38:24.814Z,23.07
2018-04-11T12:40:53.709Z,25.77
2018-04-11T12:43:22.633Z,24.63
2018-04-11T12:45:50.805Z,26.57
2018-04-11T12:48:18.937Z,25.83
2018-04-11T12:50:47.850Z,23.83
2018-04-11T12:53:15.982Z,30.63
2018-04-11T12:55:44.181Z,21.00
2018-04-11T12:58:13.014Z,24.20
2018-04-11T13:00:41.169Z,26.50
2018-04-11T13:03:09.332Z,24.10
2018-04-11T13:05:37.461Z,22.27
2018-04-11T13:08:05.614Z,21.23
2018-04-11T13:10:33.767Z,21.37
2018-04-11T13:13:02.007Z,27.47
2018-04-11T13:15:30.930Z,22.80
2018-04-11T13:17:59.053Z,22.70
2018-04-11T13:20:27.198Z,20.70
2018-04-11T13:22:55.341Z,22.10
2018-04-11T13:25:23.622Z,23.90
2018-04-11T13:27:51.903Z,27.60
2018-04-11T13:30:20.146Z,23.37
2018-04-11T13:32:48.914Z,23.60
2018-04-11T13:35:17.860Z,22.50
2018-04-11T13:37:46.093Z,28.93
2018-04-11T13:40:15.016Z,25.47
2018-04-11T13:42:43.142Z,27.57
2018-04-11T13:45:12.042Z,22.77
2018-04-11T13:47:40.960Z,26.43
2018-04-11T13:50:09.104Z,21.60
2018-04-11T13:52:45.145Z,27.17
2018-04-11T13:55:13.302Z,31.17
2018-04-11T13:57:41.654Z,27.90
2018-04-11T14:00:09.809Z,22.70
2018-04-11T14:02:38.014Z,23.83
2018-04-11T14:05:06.175Z,25.83
2018-04-11T14:07:34.318Z,22.80
2018-04-11T14:10:02.446Z,23.07
2018-04-11T14:12:30.603Z,24.20
2018-04-11T14:14:58.732Z,30.37
2018-04-11T14:17:26.899Z,23.50
2018-04-11T14:19:55.086Z,24.90
2018-04-11T14:22:23.189Z,24.13
2018-04-11T14:24:51.348Z,30.10
2018-04-11T14:27:19.488Z,23.77
2018-04-11T14:29:47.618Z,24.00
2018-04-11T14:32:16.880Z,25.87
2018-04-11T14:34:45.006Z,26.60
2018-04-11T14:37:13.259Z,25.00
2018-04-11T14:39:41.430Z,28.17
2018-04-11T14:42:09.883Z,27.77
2018-04-11T14:44:38.019Z,32.43
2018-04-11T14:47:06.942Z,30.03
2018-04-11T14:49:35.086Z,32.43
2018-04-11T14:52:04.016Z,27.00
2018-04-11T14:54:32.159Z,33.50
2018-04-11T14:57:00.386Z,28.90
2018-04-11T14:59:28.566Z,28.63
2018-04-11T15:01:56.723Z,30.10
2018-04-11T15:04:24.871Z,35.13
2018-04-11T15:06:53.032Z,28.10
2018-04-11T15:09:21.268Z,27.77
2018-04-11T15:11:49.415Z,27.40
2018-04-11T15:14:17.666Z,27.93
2018-04-11T15:16:45.789Z,28.73
2018-04-11T15:19:13.914Z,28.33
2018-04-11T15:21:42.895Z,35.50
2018-04-11T15:24:11.095Z,42.23
2018-04-11T15:26:39.370Z,28.37
2018-04-11T15:29:07.534Z,32.40
2018-04-11T15:31:35.801Z,30.50
2018-04-11T15:34:03.965Z,33.37
2018-04-11T15:36:32.115Z,33.57
2018-04-11T15:39:01.007Z,30.53
2018-04-11T15:41:29.341Z,29.53
2018-04-11T15:43:57.465Z,27.70
2018-04-11T15:46:36.467Z,30.23
2018-04-11T15:49:06.229Z,29.83
2018-04-11T15:51:34.377Z,31.93
2018-04-11T15:54:02.523Z,32.90
2018-04-11T15:56:31.424Z,33.77
2018-04-11T15:59:00.342Z,32.13
2018-04-11T16:01:28.486Z,33.10
2018-04-11T16:03:57.374Z,31.53
2018-04-11T16:06:26.346Z,33.20
2018-04-11T16:08:54.486Z,36.13
2018-04-11T16:11:22.648Z,38.03
2018-04-11T16:13:50.773Z,35.77
2018-04-11T16:16:20.338Z,35.53
2018-04-11T16:18:48.475Z,36.37
2018-04-11T16:21:16.640Z,38.13
2018-04-11T16:23:44.771Z,41.17
2018-04-11T16:26:12.897Z,37.50
2018-04-11T16:28:41.193Z,37.00
2018-04-11T16:31:09.321Z,37.20
2018-04-11T16:33:38.358Z,36.97
2018-04-11T16:36:06.511Z,38.93
2018-04-11T16:38:34.749Z,42.83
2018-04-11T16:41:02.891Z,39.93
2018-04-11T16:43:31.017Z,35.37
2018-04-11T16:45:59.174Z,41.40
2018-04-11T16:48:28.069Z,35.63
2018-04-11T16:50:56.970Z,34.00
2018-04-11T16:53:25.121Z,46.33
2018-04-11T16:55:54.019Z,51.60
2018-04-11T16:58:22.948Z,40.90
2018-04-11T17:00:51.945Z,37.53
2018-04-11T17:03:20.073Z,47.20
2018-04-11T17:05:48.987Z,42.57
2018-04-11T17:08:17.126Z,43.03
2018-04-11T17:10:46.055Z,48.20
2018-04-11T17:13:14.185Z,44.53
2018-04-11T17:15:42.332Z,45.43
2018-04-11T17:18:10.484Z,45.73
2018-04-11T17:20:56.524Z,44.00
2018-04-11T17:23:43.483Z,45.10
2018-04-11T17:26:29.427Z,48.07
2018-04-11T17:29:15.590Z,50.27
2018-04-11T17:31:43.734Z,65.37
2018-04-11T17:34:11.887Z,45.50
2018-04-11T17:36:40.738Z,48.23
2018-04-11T17:39:08.866Z,52.63
2018-04-11T17:41:37.162Z,49.20
2018-04-11T17:44:05.296Z,46.93
2018-04-11T17:46:34.222Z,57.47
2018-04-11T17:49:02.346Z,55.73
2018-04-11T17:51:31.238Z,50.13
2018-04-11T17:54:00.162Z,52.47
2018-04-11T17:56:28.443Z,53.00
2018-04-11T17:58:56.570Z,50.80
2018-04-11T18:01:25.530Z,51.07
2018-04-11T18:03:53.696Z,48.10
2018-04-11T18:06:21.822Z,56.70
2018-04-11T18:08:49.955Z,58.93
2018-04-11T18:11:18.790Z,57.40
2018-04-11T18:13:46.919Z,57.70
2018-04-11T18:16:15.052Z,49.43
2018-04-11T18:18:43.206Z,56.97
2018-04-11T18:21:11.354Z,49.87
2018-04-11T18:23:40.319Z,59.27
2018-04-11T18:26:08.449Z,55.13
2018-04-11T18:28:36.582Z,56.23
2018-04-11T18:31:04.728Z,54.97
2018-04-11T18:33:32.872Z,63.10
2018-04-11T18:36:01.102Z,59.43
2018-04-11T18:38:30.007Z,55.20
2018-04-11T18:40:58.932Z,59.30
2018-04-11T18:43:28.018Z,57.00
2018-04-11T18:45:56.182Z,51.53
2018-04-11T18:48:31.162Z,58.70
2018-04-11T18:51:00.086Z,54.13
2018-04-11T18:53:29.046Z,56.67
2018-04-11T18:55:57.160Z,59.20
2018-04-11T18:58:25.314Z,57.17
2018-04-11T19:00:54.228Z,60.50
2018-04-11T19:03:22.389Z,52.67
2018-04-11T19:05:51.175Z,55.77
2018-04-11T19:08:19.350Z,59.50
2018-04-11T19:10:47.522Z,57.73
2018-04-11T19:13:15.848Z,60.90
2018-04-11T19:15:44.611Z,54.27
2018-04-11T19:18:12.762Z,60.63
2018-04-11T19:20:40.937Z,63.97
2018-04-11T19:23:09.135Z,60.13
2018-04-11T19:25:37.327Z,63.10
2018-04-11T19:28:05.466Z,59.77
2018-04-11T19:30:33.629Z,61.30
2018-04-11T19:33:01.762Z,67.10
2018-04-11T19:35:29.923Z,59.87
2018-04-11T19:37:58.121Z,65.80
2018-04-11T19:40:26.260Z,62.10
2018-04-11T19:42:54.538Z,62.20
2018-04-11T19:45:22.686Z,67.90
2018-04-11T19:47:51.105Z,71.10
2018-04-11T19:50:19.280Z,63.53
2018-04-11T19:52:51.070Z,62.83
2018-04-11T19:55:19.230Z,66.73
2018-04-11T19:57:50.875Z,58.57
2018-04-11T20:00:19.911Z,75.77
2018-04-11T20:02:48.067Z,57.60
2018-04-11T20:05:16.205Z,59.63
2018-04-11T20:07:44.382Z,64.33
2018-04-11T20:10:12.518Z,66.33
2018-04-11T20:12:40.647Z,68.93
2018-04-11T20:15:09.566Z,63.63
2018-04-11T20:17:37.721Z,63.87
2018-04-11T20:20:05.954Z,60.57
2018-04-11T20:22:34.191Z,70.97
2018-04-11T20:25:02.324Z,62.60
2018-04-11T20:27:31.233Z,62.80
2018-04-11T20:29:59.423Z,62.17
2018-04-11T20:32:27.553Z,61.10
2018-04-11T20:34:56.479Z,58.83
2018-04-11T20:37:24.631Z,67.60
2018-04-11T20:39:52.829Z,64.20
2018-04-11T20:42:20.976Z,63.33
2018-04-11T20:44:49.906Z,61.07
2018-04-11T20:47:18.043Z,66.03
2018-04-11T20:49:46.190Z,61.83
2018-04-11T20:52:14.338Z,65.30
2018-04-11T20:54:42.497Z,59.17
2018-04-11T20:57:10.756Z,61.83
2018-04-11T20:59:38.890Z,65.63
2018-04-11T21:02:07.809Z,71.50
2018-04-11T21:04:35.993Z,63.33
2018-04-11T21:07:04.138Z,59.27
2018-04-11T21:09:33.066Z,61.27
2018-04-11T21:12:01.195Z,62.77
2018-04-11T21:14:30.110Z,69.10
2018-04-11T21:16:58.265Z,69.10
2018-04-11T21:19:26.459Z,64.13
2018-04-11T21:21:55.399Z,65.53
2018-04-11T21:24:25.306Z,62.60
2018-04-11T21:26:53.439Z,62.90
2018-04-11T21:29:21.571Z,62.00
2018-04-11T21:31:51.377Z,61.30
2018-04-11T21:34:20.275Z,62.83
2018-04-11T21:36:49.190Z,58.53
2018-04-11T21:39:18.090Z,72.93
2018-04-11T21:41:46.258Z,65.57
2018-04-11T21:44:18.524Z,62.83
2018-04-11T21:46:47.510Z,57.13
2018-04-11T21:49:15.694Z,71.13
2018-04-11T21:51:43.966Z,53.97
2018-04-11T21:54:12.102Z,51.90
2018-04-11T21:56:40.997Z,52.63
2018-04-11T21:59:09.915Z,64.50
2018-04-11T22:01:38.042Z,58.80
2018-04-11T22:04:06.198Z,62.97
2018-04-11T22:06:34.359Z,61.83
2018-04-11T22:09:02.502Z,54.37
2018-04-11T22:11:30.638Z,58.97
2018-04-11T22:13:58.790Z,57.00
2018-04-11T22:16:26.951Z,50.60
2018-04-11T22:18:55.110Z,52.00
2018-04-11T22:21:23.257Z,52.47
2018-04-11T22:23:51.414Z,62.27
2018-04-11T22:26:20.342Z,53.00
2018-04-11T22:28:49.138Z,61.03
2018-04-11T22:31:17.266Z,50.67
2018-04-11T22:33:46.202Z,50.27
2018-04-11T22:36:14.334Z,58.30
2018-04-11T22:38:42.510Z,63.13
2018-04-11T22:41:11.402Z,46.30
2018-04-11T22:43:39.554Z,55.83
2018-04-11T22:46:07.790Z,52.33
2018-04-11T22:48:35.942Z,54.53
2018-04-11T22:51:04.074Z,51.50
2018-04-11T22:53:33.000Z,53.50
2018-04-11T22:56:01.152Z,54.70
2018-04-11T22:58:30.079Z,62.40
2018-04-11T23:00:58.212Z,49.60
2018-04-11T23:03:27.225Z,67.40
2018-04-11T23:05:55.366Z,54.00
2018-04-11T23:08:24.298Z,45.90
2018-04-11T23:10:52.443Z,47.83
2018-04-11T23:13:20.598Z,53.77
2018-04-11T23:15:49.518Z,51.80
2018-04-11T23:18:17.679Z,57.80
2018-04-11T23:20:46.601Z,52.10
2018-04-11T23:23:14.729Z,55.50
2018-04-11T23:25:43.646Z,57.30
2018-04-11T23:28:11.799Z,58.23
2018-04-11T23:30:40.689Z,50.60
2018-04-11T23:33:09.593Z,51.43
2018-04-11T23:35:38.527Z,52.07
2018-04-11T23:38:06.661Z,51.97
2018-04-11T23:40:34.875Z,55.80
2018-04-11T23:43:03.037Z,53.40
2018-04-11T23:45:31.173Z,52.17
2018-04-11T23:47:59.392Z,50.63
2018-04-11T23:50:30.361Z,58.63
2018-04-11T23:53:00.113Z,55.23
2018-04-11T23:55:28.246Z,48.37
2018-04-11T23:57:57.183Z,56.77
